logo dgac
Martes 16 de Julio del 2019
Buscar por aerodromo o helipuerto
Ingrese nombre de aeródromo, localidad o designador OACI:
METAR del 16-07-2019 a las 22:00 UTC
METAR SCRD 162200Z 25004KT CAVOK 13/07 Q1019
Viento: dirección 250 grados, velocidad 4 nudos
Visibilidad: 10 km o más,
    sin nubes bajo los 5.000 pies o bajo del MSA (Mínimo de Seguridad del Aeródromo),
    sin cumulonimbus, y sin fenómenos de tiempo significativo en el aeródromo o alrededores
Temperatura: 13 °C
Rocío: 7 °C
Humedad_relativa: 67%
Presión: 1019 hPa
METAR del 16-07-2019 a las 21:00 UTC
METAR SCRD 162100Z 28004KT 8000 NSC 15/08 Q1019
Viento: dirección 280 grados, velocidad 4 nudos
Visibilidad: 8000 metros
Sin nubes bajo los 5000 pies o bajo del MSA (Mínimo de Seguridad del Aeródromo)
Temperatura: 15 °C
Rocío: 8 °C
Humedad_relativa: 63%
Presión: 1019 hPa
METAR del 16-07-2019 a las 21:00 UTC
METAR SCRD 162100Z 28004KT 8000 NSC 15/08 Q1019
Viento: dirección 280 grados, velocidad 4 nudos
Visibilidad: 8000 metros
Sin nubes bajo los 5000 pies o bajo del MSA (Mínimo de Seguridad del Aeródromo)
Temperatura: 15 °C
Rocío: 8 °C
Humedad_relativa: 63%
Presión: 1019 hPa
METAR del 16-07-2019 a las 20:00 UTC
METAR SCRD 162000Z 34004KT 8000 NSC 14/07 Q1019
Viento: dirección 340 grados, velocidad 4 nudos
Visibilidad: 8000 metros
Sin nubes bajo los 5000 pies o bajo del MSA (Mínimo de Seguridad del Aeródromo)
Temperatura: 14 °C
Rocío: 7 °C
Humedad_relativa: 63%
Presión: 1019 hPa
METAR del 16-07-2019 a las 20:00 UTC
METAR SCRD 162000Z 34004KT 8000 NSC 14/07 Q1019
Viento: dirección 340 grados, velocidad 4 nudos
Visibilidad: 8000 metros
Sin nubes bajo los 5000 pies o bajo del MSA (Mínimo de Seguridad del Aeródromo)
Temperatura: 14 °C
Rocío: 7 °C
Humedad_relativa: 63%
Presión: 1019 hPa
METAR del 16-07-2019 a las 19:00 UTC
METAR SCRD 161900Z 36005KT 8000 NSC 14/07 Q1018
Viento: dirección 360 grados, velocidad 5 nudos
Visibilidad: 8000 metros
Sin nubes bajo los 5000 pies o bajo del MSA (Mínimo de Seguridad del Aeródromo)
Temperatura: 14 °C
Rocío: 7 °C
Humedad_relativa: 63%
Presión: 1018 hPa
METAR del 16-07-2019 a las 19:00 UTC
METAR SCRD 161900Z 36005KT 8000 NSC 14/07 Q1018
Viento: dirección 360 grados, velocidad 5 nudos
Visibilidad: 8000 metros
Sin nubes bajo los 5000 pies o bajo del MSA (Mínimo de Seguridad del Aeródromo)
Temperatura: 14 °C
Rocío: 7 °C
Humedad_relativa: 63%
Presión: 1018 hPa
METAR del 16-07-2019 a las 18:00 UTC
METAR SCRD 161800Z 35005KT 8000 NSC 14/08 Q1019
Viento: dirección 350 grados, velocidad 5 nudos
Visibilidad: 8000 metros
Sin nubes bajo los 5000 pies o bajo del MSA (Mínimo de Seguridad del Aeródromo)
Temperatura: 14 °C
Rocío: 8 °C
Humedad_relativa: 67%
Presión: 1019 hPa
METAR del 16-07-2019 a las 17:00 UTC
METAR SCRD 161700Z 33005KT 8000 NSC 13/08 Q1019
Viento: dirección 330 grados, velocidad 5 nudos
Visibilidad: 8000 metros
Sin nubes bajo los 5000 pies o bajo del MSA (Mínimo de Seguridad del Aeródromo)
Temperatura: 13 °C
Rocío: 8 °C
Humedad_relativa: 72%
Presión: 1019 hPa
METAR del 16-07-2019 a las 16:00 UTC
METAR SCRD 161600Z 20003KT 8000 NSC 15/05 Q1019
Viento: dirección 200 grados, velocidad 3 nudos
Visibilidad: 8000 metros
Sin nubes bajo los 5000 pies o bajo del MSA (Mínimo de Seguridad del Aeródromo)
Temperatura: 15 °C
Rocío: 5 °C
Humedad_relativa: 51%
Presión: 1019 hPa